createdAt,value
2022-10-04T14:04:17.351Z,54.74
2022-10-04T14:05:17.599Z,53.12
2022-10-04T14:06:17.370Z,52.97
2022-10-04T14:07:17.301Z,52.67
2022-10-04T14:08:17.348Z,51.75
2022-10-04T14:09:17.283Z,52.17
2022-10-04T14:10:17.262Z,52.17
2022-10-04T14:11:17.258Z,51.77
2022-10-04T14:12:17.285Z,52.57
2022-10-04T14:13:17.226Z,52.37
2022-10-04T14:14:17.241Z,52.27
2022-10-04T14:15:17.193Z,51.67
2022-10-04T14:16:17.227Z,52.47
2022-10-04T14:17:17.220Z,52.57
2022-10-04T14:18:17.314Z,52.04
2022-10-04T14:19:17.141Z,52.07
2022-10-04T14:20:17.401Z,52.89
2022-10-04T14:21:19.627Z,53.06
2022-10-04T14:22:17.413Z,51.65
2022-10-04T14:23:17.146Z,51.65
2022-10-04T14:24:17.186Z,50.95
2022-10-04T14:25:21.129Z,51.62
2022-10-04T14:26:17.105Z,51.45
2022-10-04T14:27:17.998Z,51.95
2022-10-04T14:28:17.089Z,51.37
2022-10-04T14:29:17.035Z,51.67
2022-10-04T14:30:17.010Z,51.75
2022-10-04T14:31:17.051Z,51.97
2022-10-04T14:32:17.076Z,52.37
2022-10-04T14:33:16.961Z,53.12
2022-10-04T14:34:17.045Z,53.29
2022-10-04T14:35:16.953Z,53.29
2022-10-04T14:36:16.962Z,52.17
2022-10-04T14:37:16.922Z,52.14
2022-10-04T14:38:16.914Z,51.17
2022-10-04T14:39:16.903Z,53.24
2022-10-04T14:40:16.907Z,54.04
2022-10-04T14:41:16.919Z,53.22
2022-10-04T14:42:16.878Z,54.04
2022-10-04T14:43:16.841Z,53.24
2022-10-04T14:44:16.821Z,54.34
2022-10-04T14:45:16.814Z,53.04
2022-10-04T14:46:16.921Z,53.94
2022-10-04T14:47:16.800Z,52.49
2022-10-04T14:48:16.763Z,52.59
2022-10-04T14:49:16.758Z,53.14
2022-10-04T14:50:16.762Z,53.87
2022-10-04T14:51:16.816Z,53.42
2022-10-04T14:52:16.765Z,53.29
2022-10-04T14:53:16.699Z,51.89
2022-10-04T14:54:16.721Z,53.34
2022-10-04T14:55:16.747Z,52.94
2022-10-04T14:56:16.687Z,53.34
2022-10-04T14:57:16.742Z,53.12
2022-10-04T14:58:16.704Z,52.69
2022-10-04T14:59:16.665Z,53.52
2022-10-04T15:00:16.689Z,53.52
2022-10-04T15:01:16.728Z,52.97
2022-10-04T15:02:16.694Z,51.52
2022-10-04T15:03:16.692Z,50.62
2022-10-04T15:04:16.662Z,51.97
2022-10-04T15:05:16.598Z,52.72
2022-10-04T15:06:16.808Z,53.89
2022-10-04T15:07:16.609Z,54.86
2022-10-04T15:08:17.248Z,53.12
2022-10-04T15:09:18.415Z,53.42
2022-10-04T15:10:16.968Z,52.99
2022-10-04T15:11:16.695Z,52.99
2022-10-04T15:12:36.463Z,52.59
2022-10-04T15:13:17.444Z,53.02
2022-10-04T15:14:16.585Z,52.59
2022-10-04T15:15:16.830Z,51.95
2022-10-04T15:16:16.504Z,51.12
2022-10-04T15:17:16.469Z,51.84
2022-10-04T15:18:16.418Z,51.92
2022-10-04T15:19:16.446Z,51.52
2022-10-04T15:20:16.367Z,51.52
2022-10-04T15:21:16.350Z,51.12
2022-10-04T15:22:16.407Z,51.62
2022-10-04T15:23:16.368Z,51.62
2022-10-04T15:24:16.345Z,51.32
2022-10-04T15:25:16.328Z,51.87
2022-10-04T15:26:16.278Z,53.42
2022-10-04T15:27:16.480Z,54.86
2022-10-04T15:28:16.330Z,55.77
2022-10-04T15:29:16.319Z,57.73
2022-10-04T15:30:16.244Z,58.94
2022-10-04T15:31:16.666Z,58.23
2022-10-04T15:32:16.211Z,58.63
2022-10-04T15:33:16.204Z,58.86
2022-10-04T15:34:16.227Z,59.13
2022-10-04T15:35:16.219Z,59.23
2022-10-04T15:36:16.180Z,59.06
2022-10-04T15:37:16.165Z,58.99
2022-10-04T15:38:16.128Z,59.39
2022-10-04T15:39:16.122Z,59.49
2022-10-04T15:40:16.109Z,60.25
2022-10-04T15:41:20.143Z,60.85
2022-10-04T15:42:16.077Z,60.65
2022-10-04T15:43:16.065Z,60.35
2022-10-04T15:44:20.353Z,60.35
2022-10-04T15:45:16.066Z,61.38
2022-10-04T15:46:16.091Z,61.91
2022-10-04T15:47:16.016Z,62.02
2022-10-04T15:48:15.997Z,61.91
2022-10-04T15:49:15.992Z,62.32
2022-10-04T15:50:15.989Z,62.42
2022-10-04T15:51:16.012Z,61.82
2022-10-04T15:52:16.007Z,62.24
2022-10-04T15:53:20.103Z,63.85
2022-10-04T15:54:15.964Z,62.95
2022-10-04T15:55:15.945Z,62.75
2022-10-04T15:56:15.951Z,63.15
2022-10-04T15:57:15.872Z,62.85
2022-10-04T15:58:17.583Z,63.59
2022-10-04T15:59:15.877Z,63.99
2022-10-04T16:00:15.864Z,63.79
2022-10-04T16:01:15.897Z,63.68
2022-10-04T16:02:17.699Z,63.89
2022-10-04T16:03:15.848Z,63.48
2022-10-04T16:04:16.586Z,64.19
2022-10-04T16:05:15.854Z,63.68
2022-10-04T16:06:15.881Z,63.79
2022-10-04T16:07:16.101Z,63.79
2022-10-04T16:08:15.746Z,64.49
2022-10-04T16:09:16.000Z,64.29
2022-10-04T16:10:15.713Z,63.99
2022-10-04T16:11:15.716Z,63.76
2022-10-04T16:12:20.173Z,63.96
2022-10-04T16:13:15.769Z,63.96
2022-10-04T16:14:15.833Z,63.96
2022-10-04T16:15:15.652Z,64.09
2022-10-04T16:16:15.942Z,64.69
2022-10-04T16:17:15.981Z,64.69
2022-10-04T16:18:15.725Z,64.59
2022-10-04T16:19:15.625Z,64.49
2022-10-04T16:20:15.600Z,64.59
2022-10-04T16:21:15.583Z,65.46
2022-10-04T16:22:15.700Z,66.06
2022-10-04T16:23:15.537Z,66.27
2022-10-04T16:24:15.530Z,65.83
2022-10-04T16:25:15.527Z,65.73
2022-10-04T16:26:15.565Z,65.42
2022-10-04T16:27:15.516Z,66.03
2022-10-04T16:28:15.550Z,65.62
2022-10-04T16:29:15.503Z,65.93
2022-10-04T16:30:26.557Z,66.03
2022-10-04T16:31:20.092Z,65.93
2022-10-04T16:32:15.450Z,66.56
2022-10-04T16:33:15.428Z,66.06
2022-10-04T16:34:15.438Z,66.56
2022-10-04T16:35:16.200Z,66.47
2022-10-04T16:36:15.432Z,66.70
2022-10-04T16:37:15.434Z,67.10
2022-10-04T16:38:15.385Z,67.94
2022-10-04T16:39:15.342Z,68.14
2022-10-04T16:40:16.030Z,67.94
2022-10-04T16:41:15.411Z,68.04
2022-10-04T16:42:15.651Z,68.11
2022-10-04T16:43:15.317Z,67.60
2022-10-04T16:44:15.291Z,67.84
2022-10-04T16:45:15.268Z,68.44
2022-10-04T16:46:15.379Z,68.14
2022-10-04T16:47:15.261Z,68.51
2022-10-04T16:48:15.256Z,68.14
2022-10-04T16:49:18.122Z,68.44
2022-10-04T16:50:15.580Z,68.65
2022-10-04T16:51:16.231Z,68.85
2022-10-04T16:52:17.014Z,68.98
2022-10-04T16:53:17.398Z,69.28
2022-10-04T16:54:15.136Z,69.38
2022-10-04T16:55:15.444Z,69.18
2022-10-04T16:56:15.155Z,69.18
2022-10-04T20:25:36.851Z,81.92
2022-10-04T20:26:36.565Z,82.12
2022-10-04T20:27:36.561Z,82.53
2022-10-04T20:28:36.984Z,82.64
2022-10-04T20:29:36.532Z,82.43
2022-10-04T20:30:36.501Z,82.64
2022-10-04T20:31:36.608Z,82.53
2022-10-04T20:32:36.464Z,82.23
2022-10-04T20:33:36.495Z,82.43
2022-10-04T20:34:36.445Z,82.64
2022-10-04T20:35:36.431Z,82.64
2022-10-04T20:36:36.475Z,82.94
2022-10-04T20:37:36.445Z,82.73
2022-10-04T20:38:36.426Z,82.84
2022-10-04T20:39:36.378Z,82.64
2022-10-04T20:40:36.397Z,82.53
2022-10-04T20:41:36.322Z,82.64
2022-10-04T20:42:36.385Z,82.29
2022-10-04T20:43:36.358Z,82.43
2022-10-04T20:44:36.568Z,82.70
2022-10-04T20:45:36.401Z,82.39
2022-10-04T20:46:36.297Z,82.23
2022-10-04T20:47:36.260Z,82.29
2022-10-04T20:48:36.289Z,82.29
2022-10-04T20:49:36.550Z,82.19
2022-10-04T20:50:36.208Z,82.50
2022-10-04T20:51:36.468Z,82.29
2022-10-04T20:53:08.561Z,82.09
2022-10-04T20:54:08.257Z,82.19
2022-10-04T20:55:08.315Z,81.99
2022-10-04T20:56:08.248Z,81.78
2022-10-04T20:57:08.227Z,81.78
2022-10-04T20:58:08.209Z,81.88
2022-10-04T20:59:08.215Z,81.88
2022-10-04T21:00:08.466Z,81.92
2022-10-04T21:01:08.183Z,82.43
2022-10-04T21:02:08.232Z,82.64
2022-10-04T21:03:08.133Z,82.84
2022-10-04T21:04:08.099Z,82.73
2022-10-04T21:05:08.099Z,82.73
2022-10-04T21:06:08.084Z,82.73
